createdAt,value
2023-05-23T00:01:46.784Z,101113.53
2023-05-23T00:04:17.295Z,101106.94
2023-05-23T00:06:47.170Z,101117.28
2023-05-23T00:09:14.830Z,101114.41
2023-05-23T00:11:45.443Z,101109.25
2023-05-23T00:14:13.682Z,101110.91
2023-05-23T00:16:45.300Z,101110.88
2023-05-23T00:19:15.130Z,101113.78
2023-05-23T00:21:48.253Z,101103.03
2023-05-23T00:24:18.616Z,101100.13
2023-05-23T00:26:45.972Z,101104.50
2023-05-23T00:29:16.490Z,101101.38
2023-05-23T00:31:46.697Z,101091.44
2023-05-23T00:34:15.876Z,101098.47
2023-05-23T00:36:43.762Z,101102.38
2023-05-23T00:39:19.244Z,101099.91
2023-05-23T00:41:51.973Z,101115.81
2023-05-23T00:44:21.512Z,101113.78
2023-05-23T00:46:53.296Z,101104.69
2023-05-23T00:49:20.765Z,101100.72
2023-05-23T00:51:49.753Z,101096.59
2023-05-23T00:54:19.746Z,101099.31
2023-05-23T00:56:48.339Z,101089.19
2023-05-23T00:59:16.956Z,101089.22
2023-05-23T01:01:47.308Z,101090.06
2023-05-23T01:04:16.877Z,101086.16
2023-05-23T01:06:47.220Z,101092.34
2023-05-23T01:09:17.016Z,101098.56
2023-05-23T01:11:57.408Z,101095.25
2023-05-23T01:14:32.883Z,101091.75
2023-05-23T01:17:07.752Z,101094.44
2023-05-23T01:19:49.544Z,101091.75
2023-05-23T01:22:42.569Z,101089.88
2023-05-23T01:25:30.826Z,101089.22
2023-05-23T01:28:02.113Z,101086.72
2023-05-23T01:30:32.507Z,101087.16
2023-05-23T01:33:00.805Z,101083.81
2023-05-23T01:35:28.507Z,101084.25
2023-05-23T01:37:56.116Z,101091.31
2023-05-23T01:40:24.764Z,101093.41
2023-05-23T01:42:52.852Z,101088.44
2023-05-23T01:45:20.504Z,101079.00
2023-05-23T01:47:51.328Z,101081.66
2023-05-23T01:50:18.342Z,101086.63
2023-05-23T01:52:47.077Z,101081.22
2023-05-23T01:55:18.688Z,101086.19
2023-05-23T01:57:49.804Z,101082.03
2023-05-23T02:00:17.796Z,101084.94
2023-05-23T02:02:47.366Z,101083.06
2023-05-23T02:05:16.814Z,101088.03
2023-05-23T02:07:43.650Z,101084.13
2023-05-23T02:10:10.535Z,101086.38
2023-05-23T02:12:38.229Z,101096.94
2023-05-23T02:15:05.825Z,101098.22
2023-05-23T02:17:32.888Z,101091.34
2023-05-23T02:19:59.902Z,101092.81
2023-05-23T02:22:26.808Z,101089.72
2023-05-23T02:24:53.622Z,101090.72
2023-05-23T02:27:20.529Z,101091.97
2023-05-23T02:29:47.458Z,101085.75
2023-05-23T02:32:14.407Z,101084.28
2023-05-23T02:34:42.624Z,101083.84
2023-05-23T02:37:09.469Z,101092.75
2023-05-23T02:39:38.392Z,101094.22
2023-05-23T02:42:05.379Z,101090.53
2023-05-23T02:44:33.118Z,101090.09
2023-05-23T02:47:00.065Z,101081.22
2023-05-23T02:49:26.972Z,101074.22
2023-05-23T02:51:55.484Z,101073.81
2023-05-23T02:54:22.778Z,101080.22
2023-05-23T02:56:52.373Z,101078.56
2023-05-23T02:59:19.324Z,101084.53
2023-05-23T03:01:46.178Z,101078.78
2023-05-23T03:04:13.848Z,101077.56
2023-05-23T03:06:42.267Z,101075.91
2023-05-23T03:09:10.700Z,101071.56
2023-05-23T03:11:37.776Z,101068.44
2023-05-23T03:14:04.493Z,101066.59
2023-05-23T03:16:32.089Z,101063.28
2023-05-23T03:18:59.548Z,101063.72
2023-05-23T03:21:26.450Z,101060.22
2023-05-23T03:23:53.429Z,101062.28
2023-05-23T03:26:21.967Z,101066.22
2023-05-23T03:28:49.857Z,101072.38
2023-05-23T03:31:19.336Z,101064.94
2023-05-23T03:33:46.249Z,101069.28
2023-05-23T03:36:13.064Z,101066.59
2023-05-23T03:38:39.982Z,101069.69
2023-05-23T03:41:06.975Z,101061.22
2023-05-23T03:43:33.861Z,101059.38
2023-05-23T03:46:01.218Z,101055.22
2023-05-23T03:48:30.201Z,101060.59
2023-05-23T03:50:56.997Z,101058.09
2023-05-23T03:53:23.876Z,101061.38
2023-05-23T03:55:50.860Z,101053.53
2023-05-23T03:58:17.638Z,101066.22
2023-05-23T04:00:47.599Z,101063.16
2023-05-23T04:03:17.779Z,101057.56
2023-05-23T04:05:45.323Z,101054.66
2023-05-23T04:08:13.087Z,101052.19
2023-05-23T04:10:39.986Z,101048.28
2023-05-23T04:13:07.075Z,101056.16
2023-05-23T04:15:34.330Z,101067.06
2023-05-23T04:18:09.296Z,101052.44
2023-05-23T04:20:36.848Z,101061.03
2023-05-23T04:23:04.742Z,101049.66
2023-05-23T04:25:34.956Z,101052.75
2023-05-23T04:28:06.717Z,101060.94
2023-05-23T04:30:33.678Z,101051.44
2023-05-23T04:33:00.779Z,101041.38
2023-05-23T04:35:29.367Z,101047.31
2023-05-23T04:37:56.840Z,101043.75
2023-05-23T04:40:25.831Z,101043.59
2023-05-23T04:43:14.422Z,101044.19
2023-05-23T04:45:57.839Z,101037.81
2023-05-23T04:48:38.743Z,101035.34
2023-05-23T04:51:08.769Z,101040.25
2023-05-23T04:53:41.285Z,101045.88
2023-05-23T04:56:10.207Z,101028.50
2023-05-23T04:58:40.734Z,101027.88
2023-05-23T05:01:09.923Z,101028.09
2023-05-23T05:03:36.798Z,101022.34
2023-05-23T05:06:04.332Z,101026.25
2023-05-23T05:08:31.543Z,101017.63
2023-05-23T05:10:58.712Z,101021.31
2023-05-23T05:13:25.755Z,101021.31
2023-05-23T05:15:55.139Z,101022.78
2023-05-23T05:18:23.435Z,101024.84
2023-05-23T05:20:50.879Z,101021.09
2023-05-23T05:23:17.829Z,101031.28
2023-05-23T05:25:44.862Z,101030.03
2023-05-23T05:28:12.371Z,101040.38
2023-05-23T05:30:46.548Z,101047.41
2023-05-23T05:33:14.371Z,101049.09
2023-05-23T05:35:41.666Z,101052.63
2023-05-23T05:38:08.596Z,101048.53
2023-05-23T05:40:35.862Z,101049.59
2023-05-23T05:43:02.888Z,101053.09
2023-05-23T05:45:29.759Z,101055.22
2023-05-23T05:47:56.946Z,101060.63
2023-05-23T05:50:25.090Z,101054.41
2023-05-23T05:52:51.878Z,101053.38
2023-05-23T05:55:18.912Z,101054.63
2023-05-23T05:57:50.752Z,101056.91
2023-05-23T06:00:19.395Z,101062.50
2023-05-23T06:02:51.994Z,101054.03
2023-05-23T06:05:37.500Z,101068.47
2023-05-23T06:08:04.904Z,101071.16
2023-05-23T06:10:31.811Z,101068.66
2023-05-23T06:12:59.908Z,101067.03
2023-05-23T06:15:27.141Z,101063.06
2023-05-23T06:17:54.145Z,101056.88
2023-05-23T06:20:21.733Z,101050.25
2023-05-23T06:22:48.713Z,101051.09
2023-05-23T06:25:15.618Z,101054.19
2023-05-23T06:27:42.454Z,101054.19
2023-05-23T06:30:09.902Z,101047.13
2023-05-23T06:32:36.994Z,101051.25
2023-05-23T06:35:04.414Z,101047.56
2023-05-23T06:37:34.484Z,101060.97
2023-05-23T06:40:01.469Z,101057.06
2023-05-23T06:42:28.311Z,101061.41
2023-05-23T06:45:04.182Z,101064.47
2023-05-23T06:47:32.383Z,101059.88
2023-05-23T06:49:59.313Z,101060.09
2023-05-23T06:52:26.110Z,101051.81
2023-05-23T06:54:52.919Z,101061.53
2023-05-23T06:57:20.345Z,101056.81
2023-05-23T06:59:47.536Z,101061.56
2023-05-23T07:02:15.523Z,101068.59
2023-05-23T07:04:42.355Z,101066.56
2023-05-23T07:07:16.119Z,101070.72
2023-05-23T07:09:44.253Z,101077.53
2023-05-23T07:12:16.761Z,101079.00
2023-05-23T07:14:46.318Z,101079.63
2023-05-23T07:17:14.216Z,101075.69
2023-05-23T07:19:41.342Z,101071.34
2023-05-23T07:22:08.150Z,101085.78
2023-05-23T07:24:38.104Z,101079.78
2023-05-23T07:27:06.701Z,101074.00
2023-05-23T07:29:35.518Z,101071.75
2023-05-23T07:32:02.356Z,101069.47
2023-05-23T07:34:30.640Z,101064.25
2023-05-23T07:37:01.377Z,101062.81
2023-05-23T07:39:34.433Z,101056.81
2023-05-23T07:42:01.841Z,101053.28
2023-05-23T07:44:28.980Z,101055.34
2023-05-23T07:46:55.995Z,101046.84
2023-05-23T07:49:23.746Z,101042.47
2023-05-23T07:51:51.133Z,101043.28
2023-05-23T07:54:18.025Z,101034.19
2023-05-23T07:56:45.607Z,101040.97
2023-05-23T07:59:13.431Z,101033.69
2023-05-23T08:01:42.363Z,101032.38
2023-05-23T08:04:13.356Z,101027.56
2023-05-23T08:07:04.145Z,101026.28
2023-05-23T08:09:46.491Z,101027.69
2023-05-23T08:12:16.478Z,101032.75
2023-05-23T08:14:51.617Z,101043.91
2023-05-23T08:17:24.648Z,101044.50
2023-05-23T08:19:52.348Z,101045.97
2023-05-23T08:22:19.278Z,101050.66
2023-05-23T08:24:46.185Z,101056.31
2023-05-23T08:27:13.249Z,101046.59
2023-05-23T08:29:41.334Z,101041.13
2023-05-23T08:32:08.731Z,101051.16
2023-05-23T08:34:35.617Z,101048.97
2023-05-23T08:37:03.436Z,101050.84
2023-05-23T08:39:30.448Z,101051.63
2023-05-23T08:42:19.796Z,101054.72
2023-05-23T08:44:46.645Z,101051.84
2023-05-23T08:47:17.566Z,101060.03
2023-05-23T08:49:55.184Z,101053.66
2023-05-23T08:52:25.690Z,101057.72
2023-05-23T08:54:55.449Z,101053.47
2023-05-23T08:57:23.285Z,101051.78
2023-05-23T08:59:56.471Z,101046.97
2023-05-23T09:02:25.019Z,101044.47
2023-05-23T09:04:56.348Z,101051.03
2023-05-23T09:07:25.672Z,101051.69
2023-05-23T09:09:53.566Z,101054.09
2023-05-23T09:12:22.510Z,101062.09
2023-05-23T09:14:51.158Z,101061.66
2023-05-23T09:17:20.449Z,101064.88
2023-05-23T09:19:47.914Z,101067.66
2023-05-23T09:22:28.668Z,101061.31
2023-05-23T09:25:03.279Z,101072.84
2023-05-23T09:27:31.362Z,101079.63
2023-05-23T09:29:58.522Z,101067.53
2023-05-23T09:32:27.939Z,101072.09
2023-05-23T09:34:58.847Z,101068.28
2023-05-23T09:37:40.892Z,101062.47
2023-05-23T09:40:12.386Z,101063.00
2023-05-23T09:42:45.052Z,101064.72
2023-05-23T09:45:13.092Z,101067.13
2023-05-23T09:47:40.006Z,101068.34
2023-05-23T09:50:08.852Z,101070.88
2023-05-23T09:52:38.893Z,101070.50
2023-05-23T09:55:06.787Z,101073.84
2023-05-23T09:57:40.900Z,101070.06
2023-05-23T10:00:13.828Z,101060.69
2023-05-23T10:03:06.217Z,101059.63
2023-05-23T10:05:47.938Z,101047.91
2023-05-23T10:08:39.042Z,101050.63
2023-05-23T10:11:34.792Z,101052.56
2023-05-23T10:14:05.107Z,101051.78
2023-05-23T10:16:44.164Z,101046.75
2023-05-23T10:19:26.186Z,101047.50
2023-05-23T10:22:00.939Z,101048.63
2023-05-23T10:24:28.463Z,101057.16
2023-05-23T10:26:55.843Z,101052.00
2023-05-23T10:29:23.261Z,101040.91
2023-05-23T10:31:52.079Z,101046.00
2023-05-23T10:34:48.174Z,101045.06
2023-05-23T10:37:27.605Z,101047.13
2023-05-23T10:39:59.485Z,101042.22
2023-05-23T10:42:44.716Z,101046.66
2023-05-23T10:45:29.578Z,101051.44
2023-05-23T10:47:56.576Z,101051.59
2023-05-23T10:50:41.756Z,101043.06
2023-05-23T10:53:09.503Z,101035.91
2023-05-23T10:55:37.593Z,101037.00
2023-05-23T10:58:12.829Z,101041.28
2023-05-23T11:00:40.005Z,101038.56
2023-05-23T11:03:09.256Z,101043.31
2023-05-23T11:05:38.782Z,101036.00
2023-05-23T11:08:16.273Z,101031.72
2023-05-23T11:11:03.308Z,101023.59
2023-05-23T11:13:56.754Z,101036.09
2023-05-23T11:16:49.360Z,101036.16
2023-05-23T11:19:19.218Z,101039.03
2023-05-23T11:21:49.284Z,101034.22
2023-05-23T11:24:17.708Z,101038.88
2023-05-23T11:26:55.218Z,101039.53
2023-05-23T11:29:22.166Z,101033.47
2023-05-23T11:31:51.693Z,101024.69
2023-05-23T11:34:19.306Z,101034.75
2023-05-23T11:36:46.887Z,101018.81
2023-05-23T11:39:15.572Z,101024.69
2023-05-23T11:41:43.556Z,101026.16
2023-05-23T11:44:13.938Z,101023.38
2023-05-23T11:46:41.382Z,101030.34
2023-05-23T11:49:12.209Z,101017.13
2023-05-23T11:51:39.197Z,101021.50
2023-05-23T11:54:06.980Z,101036.56
2023-05-23T11:56:39.639Z,101033.13
2023-05-23T11:59:06.624Z,101032.94
2023-05-23T12:01:34.683Z,101032.03
2023-05-23T12:04:10.938Z,101027.91
2023-05-23T12:06:40.476Z,101028.19
2023-05-23T12:09:16.920Z,101029.94
2023-05-23T12:11:45.112Z,101028.94
2023-05-23T12:14:18.372Z,101030.84
2023-05-23T12:16:47.117Z,101028.00
2023-05-23T12:19:17.136Z,101024.50
2023-05-23T12:21:46.511Z,101023.56
2023-05-23T12:24:21.280Z,101025.53
2023-05-23T12:26:48.998Z,101025.00
2023-05-23T12:29:16.591Z,101023.72
2023-05-23T12:31:43.626Z,101025.47
2023-05-23T12:34:13.836Z,101021.53
2023-05-23T12:36:49.075Z,101021.81
2023-05-23T12:39:16.490Z,101030.34
2023-05-23T12:41:45.533Z,101025.59
2023-05-23T12:44:16.531Z,101025.03
2023-05-23T12:46:43.642Z,101030.09
2023-05-23T12:49:11.179Z,101032.97
2023-05-23T12:51:38.126Z,101039.63
2023-05-23T12:54:05.026Z,101033.47
2023-05-23T12:56:31.980Z,101031.19
2023-05-23T12:58:58.929Z,101037.56
2023-05-23T13:01:25.902Z,101040.56
2023-05-23T13:03:52.901Z,101035.97
2023-05-23T13:06:19.881Z,101038.50
2023-05-23T13:08:46.904Z,101045.22
2023-05-23T13:11:13.811Z,101037.84
2023-05-23T13:13:40.737Z,101026.63
2023-05-23T13:16:08.171Z,101026.78
2023-05-23T13:18:35.047Z,101034.34
2023-05-23T13:21:01.945Z,101026.00
2023-05-23T13:23:28.831Z,101018.47
2023-05-23T13:25:56.553Z,101009.34
2023-05-23T13:28:23.776Z,101013.63
2023-05-23T13:30:51.586Z,101012.59
2023-05-23T13:33:18.496Z,101011.81
2023-05-23T13:35:45.650Z,101008.03
2023-05-23T13:38:12.850Z,101016.88
2023-05-23T13:40:39.995Z,101012.84
2023-05-23T13:43:07.206Z,101012.19
2023-05-23T13:45:34.097Z,101012.56
2023-05-23T13:48:01.150Z,101013.47
2023-05-23T13:50:28.393Z,101012.53
2023-05-23T13:52:56.199Z,101017.97
2023-05-23T13:55:22.989Z,101014.19
2023-05-23T13:57:49.830Z,101014.84
2023-05-23T14:00:17.448Z,101016.16
2023-05-23T14:02:44.284Z,101020.66
2023-05-23T14:05:11.187Z,101025.75
2023-05-23T14:07:38.470Z,101035.69
2023-05-23T14:10:07.152Z,101027.88
2023-05-23T14:12:34.094Z,101036.75
2023-05-23T14:15:00.928Z,101034.97
2023-05-23T14:17:27.859Z,101037.56
2023-05-23T14:19:54.756Z,101043.69
2023-05-23T14:22:21.654Z,101047.06
2023-05-23T14:24:48.755Z,101044.22
2023-05-23T14:27:15.653Z,101038.19
2023-05-23T14:29:46.430Z,101043.25
2023-05-23T14:32:13.731Z,101034.28
2023-05-23T14:34:40.912Z,101029.63
2023-05-23T14:37:07.791Z,101038.72
2023-05-23T14:39:34.824Z,101034.31
2023-05-23T14:42:02.772Z,101032.41
2023-05-23T14:44:29.764Z,101042.00
2023-05-23T14:46:56.620Z,101035.59
2023-05-23T14:49:23.449Z,101037.06
2023-05-23T14:51:51.130Z,101041.22
2023-05-23T14:54:19.316Z,101029.81
2023-05-23T14:56:46.449Z,101027.44
2023-05-23T14:59:13.454Z,101031.63
2023-05-23T15:01:41.080Z,101043.59
2023-05-23T15:04:09.894Z,101042.03
2023-05-23T15:06:38.816Z,101042.78
2023-05-23T15:09:06.002Z,101039.97
2023-05-23T15:11:35.099Z,101033.72
2023-05-23T15:14:02.252Z,101037.69
2023-05-23T15:16:33.040Z,101035.41
2023-05-23T15:19:00.383Z,101038.06
2023-05-23T15:21:27.531Z,101031.84
2023-05-23T15:23:54.828Z,101027.84
2023-05-23T15:26:22.216Z,101030.19
2023-05-23T15:28:49.099Z,101023.91
2023-05-23T15:31:15.924Z,101020.41
2023-05-23T15:33:42.921Z,101021.03
2023-05-23T15:36:09.832Z,101022.94
2023-05-23T15:38:36.630Z,101023.94
2023-05-23T15:41:04.954Z,101020.03
2023-05-23T15:43:32.792Z,101024.78
2023-05-23T15:45:59.736Z,101021.22
2023-05-23T15:48:26.579Z,101030.91
2023-05-23T15:50:53.556Z,101025.03
2023-05-23T15:53:20.935Z,101028.97
2023-05-23T15:55:47.894Z,101024.16
2023-05-23T15:58:14.961Z,101021.25
2023-05-23T16:00:42.027Z,101017.78
2023-05-23T16:03:09.064Z,101010.72
2023-05-23T16:05:36.313Z,101011.66
2023-05-23T16:08:03.101Z,101003.66
2023-05-23T16:10:30.028Z,101004.78
2023-05-23T16:12:56.810Z,101007.94
2023-05-23T16:15:23.657Z,101016.94
2023-05-23T16:17:50.523Z,101016.38
2023-05-23T16:20:17.429Z,101020.81
2023-05-23T16:22:45.962Z,101021.31
2023-05-23T16:25:13.096Z,101014.53
2023-05-23T16:27:40.644Z,101014.97
2023-05-23T16:30:08.154Z,101009.66
2023-05-23T16:32:35.144Z,101009.47
2023-05-23T16:35:01.960Z,101008.84
2023-05-23T16:37:28.820Z,101011.66
2023-05-23T16:39:55.652Z,101006.06
2023-05-23T16:42:22.490Z,101005.28
2023-05-23T16:44:49.486Z,101004.13
2023-05-23T16:47:17.153Z,100998.88
2023-05-23T16:49:44.138Z,101004.13
2023-05-23T16:52:11.328Z,100993.78
2023-05-23T16:54:38.133Z,100999.03
2023-05-23T16:57:05.710Z,100995.88
2023-05-23T16:59:32.792Z,100996.03
2023-05-23T17:01:59.762Z,100998.19
2023-05-23T17:04:26.652Z,101001.81
2023-05-23T17:06:53.560Z,100997.22
2023-05-23T17:09:22.001Z,100992.19
2023-05-23T17:11:49.286Z,100991.94
2023-05-23T17:14:16.290Z,100983.63
2023-05-23T17:16:43.285Z,100990.72
2023-05-23T17:19:10.533Z,100983.72
2023-05-23T17:21:37.721Z,100979.75
2023-05-23T17:24:04.862Z,100982.25
2023-05-23T17:26:31.939Z,100975.50
2023-05-23T17:28:58.842Z,100970.94
2023-05-23T17:31:26.519Z,100969.72
2023-05-23T17:33:53.988Z,100973.69
2023-05-23T17:36:21.104Z,100966.59
2023-05-23T17:38:47.908Z,100963.31
2023-05-23T17:41:15.534Z,100973.00
2023-05-23T17:43:45.395Z,100978.13
2023-05-23T17:46:12.245Z,100976.47
2023-05-23T17:51:12.352Z,100971.78
2023-05-23T17:53:41.327Z,100977.63
2023-05-23T17:56:09.395Z,100981.91
2023-05-23T17:58:41.810Z,100981.41
2023-05-23T18:01:11.735Z,100982.25
2023-05-23T18:03:38.970Z,100982.19
2023-05-23T18:06:05.940Z,100977.34
2023-05-23T18:08:32.801Z,100980.06
2023-05-23T18:11:00.166Z,100978.50
2023-05-23T18:13:26.989Z,100987.59
2023-05-23T18:15:53.790Z,100990.38
2023-05-23T18:18:21.216Z,100980.84
2023-05-23T18:20:48.029Z,100990.53
2023-05-23T18:23:14.812Z,100986.69
2023-05-23T18:25:41.555Z,100991.38
2023-05-23T18:28:08.299Z,100983.56
2023-05-23T18:30:35.124Z,100983.81
2023-05-23T18:33:02.098Z,100988.97
2023-05-23T18:35:29.013Z,100991.69
2023-05-23T18:37:56.108Z,100990.53
2023-05-23T18:40:24.292Z,100987.03
2023-05-23T18:42:51.207Z,100988.59
2023-05-23T18:45:18.232Z,100993.63
2023-05-23T18:47:45.260Z,100988.75
2023-05-23T18:50:13.430Z,100995.94
2023-05-23T18:52:40.843Z,100993.50
2023-05-23T18:55:08.480Z,101001.88
2023-05-23T18:57:35.346Z,100996.78
2023-05-23T19:00:03.268Z,100999.22
2023-05-23T19:02:30.265Z,101002.28
2023-05-23T19:04:57.299Z,101004.38
2023-05-23T19:07:24.167Z,101007.09
2023-05-23T19:09:51.290Z,101018.41
2023-05-23T19:12:19.472Z,101016.00
2023-05-23T19:14:46.579Z,101017.50
2023-05-23T19:17:13.525Z,101010.69
2023-05-23T19:19:40.475Z,101021.09
2023-05-23T19:22:07.451Z,101026.97
2023-05-23T19:24:34.248Z,101021.69
2023-05-23T19:27:02.307Z,101032.19
2023-05-23T19:29:29.245Z,101033.13
2023-05-23T19:31:57.935Z,101043.03
2023-05-23T19:34:25.000Z,101045.84
2023-05-23T19:36:51.789Z,101042.03
2023-05-23T19:39:19.107Z,101037.19
2023-05-23T19:41:46.091Z,101047.06
2023-05-23T19:44:13.272Z,101051.91
2023-05-23T19:46:40.222Z,101044.03
2023-05-23T19:49:08.932Z,101042.41
2023-05-23T19:51:36.891Z,101040.41
2023-05-23T19:54:04.091Z,101054.97
2023-05-23T19:56:31.036Z,101060.38
2023-05-23T19:59:07.206Z,101066.59
2023-05-23T20:01:34.186Z,101066.59
2023-05-23T20:04:01.606Z,101063.31
2023-05-23T20:06:28.663Z,101074.81
2023-05-23T20:08:55.553Z,101076.16
2023-05-23T20:11:22.987Z,101088.69
2023-05-23T20:13:49.840Z,101091.75
2023-05-23T20:16:17.531Z,101094.59
2023-05-23T20:18:44.449Z,101103.03
2023-05-23T20:21:11.826Z,101097.16
2023-05-23T20:23:38.704Z,101093.84
2023-05-23T20:26:07.042Z,101106.78
2023-05-23T20:28:35.028Z,101103.72
2023-05-23T20:31:02.229Z,101103.13
2023-05-23T20:33:29.077Z,101116.88
2023-05-23T20:35:56.534Z,101112.97
2023-05-23T20:38:24.775Z,101124.56
2023-05-23T20:40:52.745Z,101125.88
2023-05-23T20:43:22.336Z,101132.09
2023-05-23T20:45:49.255Z,101141.25
2023-05-23T20:48:16.340Z,101133.72
2023-05-23T20:50:43.980Z,101134.56
2023-05-23T20:53:11.296Z,101140.78
2023-05-23T20:55:38.180Z,101153.47
2023-05-23T20:58:05.121Z,101153.81
2023-05-23T21:00:32.007Z,101155.41
2023-05-23T21:02:59.081Z,101158.91
2023-05-23T21:05:26.302Z,101163.56
2023-05-23T21:07:53.189Z,101164.84
2023-05-23T21:10:20.096Z,101156.88
2023-05-23T21:12:50.287Z,101164.88
2023-05-23T21:15:17.441Z,101168.75
2023-05-23T21:17:44.431Z,101163.84
2023-05-23T21:20:12.059Z,101167.00
2023-05-23T21:22:39.672Z,101168.50
2023-05-23T21:25:06.900Z,101181.75
2023-05-23T21:27:33.762Z,101169.78
2023-05-23T21:30:00.561Z,101172.56
2023-05-23T21:32:27.461Z,101173.53
2023-05-23T21:34:54.720Z,101179.63
2023-05-23T21:37:21.557Z,101176.19
2023-05-23T21:39:52.079Z,101181.34
2023-05-23T21:42:20.075Z,101176.19
2023-05-23T21:44:47.065Z,101178.13
2023-05-23T21:47:13.975Z,101177.22
2023-05-23T21:49:40.858Z,101181.72
2023-05-23T21:52:07.750Z,101188.41
2023-05-23T21:54:34.692Z,101184.56
2023-05-23T21:57:01.573Z,101173.53
2023-05-23T21:59:28.494Z,101169.78
2023-05-23T22:01:55.348Z,101174.13
2023-05-23T22:04:22.309Z,101174.81
2023-05-23T22:06:49.111Z,101171.28
2023-05-23T22:09:16.093Z,101168.00
2023-05-23T22:11:43.186Z,101169.13
2023-05-23T22:14:10.561Z,101162.94
2023-05-23T22:16:40.560Z,101161.59
2023-05-23T22:19:09.746Z,101155.97
2023-05-23T22:21:37.112Z,101158.28
2023-05-23T22:24:04.510Z,101163.78
2023-05-23T22:26:31.366Z,101167.28
2023-05-23T22:28:58.159Z,101159.22
2023-05-23T22:31:25.097Z,101156.91
2023-05-23T22:33:52.343Z,101158.50
2023-05-23T22:36:19.189Z,101159.59
2023-05-23T22:38:46.120Z,101161.91
2023-05-23T22:41:12.999Z,101157.09
2023-05-23T22:43:40.041Z,101156.28
2023-05-23T22:46:07.500Z,101165.41
2023-05-23T22:48:34.470Z,101168.56
2023-05-23T22:51:02.481Z,101155.78
2023-05-23T22:53:30.172Z,101159.13
2023-05-23T22:55:57.529Z,101154.47
2023-05-23T22:58:24.553Z,101146.44
2023-05-23T23:00:51.954Z,101153.56
2023-05-23T23:03:19.093Z,101152.25
2023-05-23T23:05:46.488Z,101150.81
2023-05-23T23:08:13.489Z,101145.31
2023-05-23T23:10:41.762Z,101145.16
2023-05-23T23:13:08.818Z,101134.09
2023-05-23T23:15:36.767Z,101135.97
2023-05-23T23:18:05.853Z,101133.28
2023-05-23T23:20:33.202Z,101140.50
2023-05-23T23:23:00.691Z,101134.47
2023-05-23T23:25:27.537Z,101130.50
2023-05-23T23:27:54.315Z,101129.91
2023-05-23T23:30:21.422Z,101134.84
2023-05-23T23:32:48.549Z,101133.81
2023-05-23T23:35:15.652Z,101124.28
2023-05-23T23:37:42.503Z,101123.16
2023-05-23T23:40:10.058Z,101120.84
2023-05-23T23:42:37.152Z,101120.00
2023-05-23T23:45:05.052Z,101126.28
2023-05-23T23:47:32.818Z,101121.13
2023-05-23T23:50:00.022Z,101123.81
2023-05-23T23:52:28.194Z,101121.34
2023-05-23T23:54:55.217Z,101120.97
2023-05-23T23:57:22.060Z,101116.91
